createdAt,value
2023-05-08T00:02:14.762Z,9.69
2023-05-08T00:04:44.411Z,9.23
2023-05-08T00:07:13.968Z,9.13
2023-05-08T00:09:43.480Z,9.03
2023-05-08T00:12:13.053Z,8.91
2023-05-08T00:14:42.679Z,8.95
2023-05-08T00:17:14.804Z,8.85
2023-05-08T00:19:44.354Z,8.84
2023-05-08T00:22:13.871Z,8.76
2023-05-08T00:24:43.381Z,8.74
2023-05-08T00:27:12.919Z,8.72
2023-05-08T00:29:43.176Z,8.84
2023-05-08T00:32:15.984Z,8.72
2023-05-08T00:34:45.580Z,8.73
2023-05-08T00:37:15.117Z,8.66
2023-05-08T00:39:44.675Z,8.58
2023-05-08T00:42:14.129Z,8.58
2023-05-08T00:44:43.667Z,8.44
2023-05-08T00:47:15.769Z,8.33
2023-05-08T00:49:45.834Z,8.41
2023-05-08T00:52:15.894Z,8.32
2023-05-08T00:54:45.460Z,8.41
2023-05-08T00:57:15.103Z,8.28
2023-05-08T00:59:45.612Z,8.21
2023-05-08T01:02:18.025Z,8.15
2023-05-08T01:04:49.133Z,8.18
2023-05-08T01:07:18.636Z,8.13
2023-05-08T01:09:48.432Z,8.07
2023-05-08T01:12:20.986Z,8.09
2023-05-08T01:15:01.342Z,8.12
2023-05-08T01:17:43.510Z,8.07
2023-05-08T01:20:20.964Z,8.10
2023-05-08T01:23:15.294Z,7.93
2023-05-08T01:25:59.171Z,7.94
2023-05-08T01:29:19.933Z,7.94
2023-05-08T01:32:04.272Z,7.87
2023-05-08T01:34:35.582Z,7.83
2023-05-08T01:37:07.566Z,7.79
2023-05-08T01:39:42.337Z,7.78
2023-05-08T01:42:27.415Z,7.77
2023-05-08T01:45:00.643Z,7.74
2023-05-08T01:47:34.185Z,7.64
2023-05-08T01:50:07.431Z,7.65
2023-05-08T01:52:40.016Z,7.68
2023-05-08T01:55:12.982Z,7.69
2023-05-08T01:57:46.525Z,7.67
2023-05-08T02:00:18.639Z,7.55
2023-05-08T02:02:51.281Z,7.76
2023-05-08T02:05:21.690Z,7.71
2023-05-08T02:07:52.536Z,7.62
2023-05-08T02:10:25.829Z,7.60
2023-05-08T02:12:56.627Z,7.61
2023-05-08T02:15:27.779Z,7.60
2023-05-08T02:18:01.932Z,7.55
2023-05-08T02:20:31.833Z,7.49
2023-05-08T02:23:01.508Z,7.36
2023-05-08T02:25:32.059Z,7.33
2023-05-08T02:28:02.086Z,7.25
2023-05-08T02:30:32.254Z,7.29
2023-05-08T02:33:04.453Z,7.37
2023-05-08T02:35:34.058Z,7.40
2023-05-08T02:38:04.740Z,7.24
2023-05-08T02:40:35.285Z,7.23
2023-05-08T02:43:05.194Z,7.35
2023-05-08T02:45:36.212Z,7.33
2023-05-08T02:48:14.196Z,7.38
2023-05-08T02:50:46.568Z,7.15
2023-05-08T02:53:22.217Z,7.09
2023-05-08T02:55:53.805Z,7.07
2023-05-08T02:58:28.066Z,6.97
2023-05-08T03:01:06.673Z,6.87
2023-05-08T03:03:42.128Z,6.99
2023-05-08T03:06:15.621Z,6.87
2023-05-08T03:08:45.870Z,6.86
2023-05-08T03:11:18.866Z,6.94
2023-05-08T03:13:49.930Z,6.92
2023-05-08T03:16:21.547Z,6.83
2023-05-08T03:19:00.974Z,6.94
2023-05-08T03:21:32.071Z,6.89
2023-05-08T03:24:02.909Z,6.97
2023-05-08T03:26:35.841Z,6.93
2023-05-08T03:29:05.725Z,6.87
2023-05-08T03:31:36.322Z,6.88
2023-05-08T03:34:09.269Z,6.81
2023-05-08T03:36:38.865Z,6.80
2023-05-08T03:39:08.717Z,6.72
2023-05-08T03:41:38.266Z,6.87
2023-05-08T03:44:08.268Z,6.80
2023-05-08T03:46:38.718Z,6.80
2023-05-08T03:49:11.905Z,6.74
2023-05-08T03:51:42.216Z,6.61
2023-05-08T03:54:11.779Z,6.54
2023-05-08T03:56:41.299Z,6.64
2023-05-08T03:59:17.886Z,6.53
2023-05-08T04:01:52.183Z,6.56
2023-05-08T04:04:28.162Z,6.64
2023-05-08T04:07:02.820Z,6.89
2023-05-08T04:09:39.038Z,7.54
2023-05-08T04:12:15.143Z,7.26
2023-05-08T04:14:47.096Z,6.85
2023-05-08T04:17:18.966Z,6.74
2023-05-08T04:19:54.550Z,6.72
2023-05-08T04:22:26.384Z,6.69
2023-05-08T04:24:57.809Z,6.79
2023-05-08T04:27:28.353Z,6.74
2023-05-08T04:29:58.036Z,6.57
2023-05-08T04:32:27.609Z,6.55
2023-05-08T04:34:59.755Z,6.69
2023-05-08T04:37:31.457Z,7.12
2023-05-08T04:40:01.472Z,7.55
2023-05-08T04:42:31.101Z,7.67
2023-05-08T04:45:00.772Z,7.38
2023-05-08T04:47:30.349Z,7.11
2023-05-08T04:50:03.165Z,6.96
2023-05-08T04:52:33.044Z,6.87
2023-05-08T04:55:02.592Z,6.81
2023-05-08T04:57:32.042Z,6.81
2023-05-08T05:00:01.606Z,6.95
2023-05-08T05:02:31.342Z,6.91
2023-05-08T05:05:03.707Z,6.96
2023-05-08T05:07:33.190Z,6.91
2023-05-08T05:10:02.730Z,6.91
2023-05-08T05:12:32.222Z,6.89
2023-05-08T05:15:01.689Z,6.97
2023-05-08T05:17:31.220Z,6.93
2023-05-08T05:20:03.414Z,6.92
2023-05-08T05:22:33.233Z,6.96
2023-05-08T05:25:02.761Z,7.00
2023-05-08T05:27:32.283Z,7.04
2023-05-08T05:30:01.865Z,7.10
2023-05-08T05:32:31.449Z,7.14
2023-05-08T05:35:03.625Z,7.20
2023-05-08T05:37:33.102Z,7.16
2023-05-08T05:40:02.598Z,7.16
2023-05-08T05:42:32.186Z,7.21
2023-05-08T05:45:04.891Z,7.24
2023-05-08T05:47:34.451Z,7.35
2023-05-08T05:50:06.972Z,7.38
2023-05-08T05:52:36.534Z,7.41
2023-05-08T05:55:06.305Z,7.46
2023-05-08T05:57:35.864Z,7.51
2023-05-08T06:00:06.027Z,7.63
2023-05-08T06:02:36.355Z,7.62
2023-05-08T06:05:09.874Z,7.64
2023-05-08T06:07:39.895Z,7.74
2023-05-08T06:10:11.164Z,7.79
2023-05-08T06:12:40.680Z,7.83
2023-05-08T06:15:11.478Z,7.82
2023-05-08T06:17:41.253Z,7.88
2023-05-08T06:20:14.255Z,7.90
2023-05-08T06:22:43.774Z,7.90
2023-05-08T06:25:13.812Z,7.97
2023-05-08T06:27:43.508Z,8.05
2023-05-08T06:30:14.179Z,8.10
2023-05-08T06:32:43.688Z,8.29
2023-05-08T06:35:18.560Z,8.30
2023-05-08T06:37:48.639Z,8.35
2023-05-08T06:40:18.113Z,8.42
2023-05-08T06:42:48.345Z,8.46
2023-05-08T06:45:18.217Z,8.49
2023-05-08T06:47:47.742Z,8.57
2023-05-08T06:50:20.132Z,8.73
2023-05-08T06:52:49.923Z,8.79
2023-05-08T06:55:19.544Z,8.99
2023-05-08T06:57:49.065Z,9.15
2023-05-08T07:00:19.154Z,9.20
2023-05-08T07:02:48.966Z,9.34
2023-05-08T07:05:21.213Z,9.51
2023-05-08T07:07:50.783Z,9.47
2023-05-08T07:10:21.254Z,9.50
2023-05-08T07:12:50.937Z,9.57
2023-05-08T07:15:26.601Z,9.61
2023-05-08T07:17:56.933Z,9.63
2023-05-08T07:20:29.463Z,9.65
2023-05-08T07:22:58.973Z,9.67
2023-05-08T07:25:28.682Z,9.74
2023-05-08T07:28:01.030Z,9.76
2023-05-08T07:30:30.901Z,9.71
2023-05-08T07:33:00.470Z,9.79
2023-05-08T07:35:32.742Z,9.86
2023-05-08T07:38:02.211Z,9.96
2023-05-08T07:40:31.733Z,10.04
2023-05-08T07:43:01.270Z,10.09
2023-05-08T07:45:31.100Z,10.13
2023-05-08T07:48:02.216Z,10.07
2023-05-08T07:50:34.544Z,10.09
2023-05-08T07:53:04.033Z,10.13
2023-05-08T07:55:33.794Z,10.25
2023-05-08T07:58:03.742Z,10.23
2023-05-08T08:00:33.760Z,10.29
2023-05-08T08:03:03.398Z,10.39
2023-05-08T08:05:35.552Z,10.36
2023-05-08T08:08:05.678Z,10.60
2023-05-08T08:10:35.337Z,10.87
2023-05-08T08:13:05.553Z,11.06
2023-05-08T08:15:35.187Z,10.97
2023-05-08T08:18:04.787Z,11.09
2023-05-08T08:20:36.884Z,11.28
2023-05-08T08:23:06.575Z,11.44
2023-05-08T08:25:36.042Z,11.43
2023-05-08T08:28:05.511Z,11.49
2023-05-08T08:30:34.973Z,11.65
2023-05-08T08:33:06.343Z,11.81
2023-05-08T08:35:38.601Z,11.74
2023-05-08T08:38:08.094Z,12.04
2023-05-08T08:40:42.032Z,12.20
2023-05-08T08:43:12.164Z,12.14
2023-05-08T08:45:41.650Z,12.36
2023-05-08T08:48:14.200Z,12.19
2023-05-08T08:50:50.582Z,12.40
2023-05-08T08:53:25.155Z,12.77
2023-05-08T08:55:57.201Z,12.97
2023-05-08T08:58:31.587Z,12.57
2023-05-08T09:01:04.138Z,12.27
2023-05-08T09:03:34.020Z,12.21
2023-05-08T09:06:06.489Z,12.21
2023-05-08T09:08:36.004Z,12.04
2023-05-08T09:11:05.765Z,12.01
2023-05-08T09:13:35.345Z,12.10
2023-05-08T09:16:05.004Z,12.18
2023-05-08T09:18:34.669Z,12.19
2023-05-08T09:21:08.853Z,12.29
2023-05-08T09:23:38.965Z,12.26
2023-05-08T09:26:09.441Z,12.42
2023-05-08T09:28:38.951Z,12.61
2023-05-08T09:31:08.830Z,12.74
2023-05-08T09:33:47.445Z,12.70
2023-05-08T09:36:32.129Z,12.71
2023-05-08T09:39:01.690Z,12.80
2023-05-08T09:41:31.304Z,13.03
2023-05-08T09:44:04.875Z,13.04
2023-05-08T09:46:34.835Z,12.96
2023-05-08T09:49:05.809Z,13.01
2023-05-08T09:51:37.976Z,12.87
2023-05-08T09:54:20.319Z,13.02
2023-05-08T09:56:50.036Z,12.95
2023-05-08T09:59:27.855Z,13.09
2023-05-08T10:01:58.244Z,13.05
2023-05-08T10:04:38.125Z,13.02
2023-05-08T10:07:10.425Z,13.15
2023-05-08T10:09:50.358Z,13.29
2023-05-08T10:12:20.673Z,13.67
2023-05-08T10:14:50.292Z,14.06
2023-05-08T10:17:29.605Z,14.33
2023-05-08T10:20:03.056Z,14.54
2023-05-08T10:22:36.433Z,14.72
2023-05-08T10:25:06.593Z,14.70
2023-05-08T10:27:42.056Z,14.68
2023-05-08T10:30:13.551Z,14.91
2023-05-08T10:32:46.933Z,15.35
2023-05-08T10:35:16.583Z,15.32
2023-05-08T10:37:49.006Z,15.24
2023-05-08T10:40:18.827Z,15.47
2023-05-08T10:42:48.622Z,15.60
2023-05-08T10:45:18.479Z,15.68
2023-05-08T10:47:54.891Z,15.75
2023-05-08T10:50:45.463Z,15.58
2023-05-08T10:53:22.036Z,15.69
2023-05-08T10:55:54.045Z,15.91
2023-05-08T10:58:33.864Z,16.01
2023-05-08T11:01:21.805Z,15.99
2023-05-08T11:03:55.419Z,15.93
2023-05-08T11:06:47.405Z,15.94
2023-05-08T11:09:30.402Z,16.00
2023-05-08T11:12:09.092Z,15.98
2023-05-08T11:14:41.077Z,15.95
2023-05-08T11:17:11.829Z,15.88
2023-05-08T11:19:41.674Z,15.83
2023-05-08T11:22:18.929Z,15.76
2023-05-08T11:24:57.520Z,15.71
2023-05-08T11:27:41.282Z,15.88
2023-05-08T11:30:28.029Z,16.12
2023-05-08T11:33:27.983Z,16.27
2023-05-08T11:35:59.370Z,16.20
2023-05-08T11:38:31.678Z,15.84
2023-05-08T11:41:08.513Z,15.95
2023-05-08T11:43:58.000Z,16.21
2023-05-08T11:46:41.870Z,16.26
2023-05-08T11:49:17.442Z,16.41
2023-05-08T11:51:49.053Z,16.67
2023-05-08T11:54:19.940Z,16.59
2023-05-08T11:56:56.872Z,16.83
2023-05-08T11:59:26.887Z,16.50
2023-05-08T12:02:07.504Z,16.42
2023-05-08T12:04:46.113Z,16.87
2023-05-08T12:07:16.301Z,17.28
2023-05-08T12:09:45.820Z,17.50
2023-05-08T12:12:18.214Z,17.61
2023-05-08T12:14:51.763Z,17.32
2023-05-08T12:17:21.659Z,17.41
2023-05-08T12:19:51.273Z,17.58
2023-05-08T12:22:20.844Z,17.89
2023-05-08T12:24:50.381Z,18.44
2023-05-08T12:27:22.533Z,18.56
2023-05-08T12:29:51.999Z,18.88
2023-05-08T12:32:21.625Z,18.98
2023-05-08T12:34:52.645Z,19.07
2023-05-08T12:37:27.384Z,19.53
2023-05-08T12:39:56.858Z,19.52
2023-05-08T12:42:46.809Z,20.08
2023-05-08T12:45:28.414Z,20.43
2023-05-08T12:48:02.002Z,20.33
2023-05-08T12:50:32.996Z,20.43
2023-05-08T12:53:06.222Z,20.28
2023-05-08T12:55:38.213Z,20.15
2023-05-08T12:58:15.455Z,20.09
2023-05-08T13:00:46.473Z,20.10
2023-05-08T13:03:24.529Z,20.41
2023-05-08T13:05:54.908Z,20.33
2023-05-08T13:08:32.399Z,19.88
2023-05-08T13:11:02.492Z,19.72
2023-05-08T13:13:36.424Z,19.96
2023-05-08T13:16:07.315Z,20.39
2023-05-08T13:18:38.176Z,21.08
2023-05-08T13:21:08.421Z,20.16
2023-05-08T13:23:40.011Z,20.12
2023-05-08T13:26:09.527Z,19.78
2023-05-08T13:28:41.624Z,19.83
2023-05-08T13:31:11.161Z,19.86
2023-05-08T13:33:40.757Z,19.52
2023-05-08T13:36:10.503Z,20.24
2023-05-08T13:38:40.020Z,20.71
2023-05-08T13:41:09.500Z,20.48
2023-05-08T13:43:42.668Z,20.27
2023-05-08T13:46:12.232Z,20.07
2023-05-08T13:48:41.788Z,19.78
2023-05-08T13:51:11.269Z,18.76
2023-05-08T13:53:40.826Z,19.06
2023-05-08T13:56:10.583Z,19.49
2023-05-08T13:58:42.675Z,20.27
2023-05-08T14:01:25.502Z,20.65
2023-05-08T14:03:55.843Z,20.61
2023-05-08T14:06:25.482Z,20.54
2023-05-08T14:08:56.894Z,20.55
2023-05-08T14:11:27.369Z,20.53
2023-05-08T14:13:59.479Z,20.75
2023-05-08T14:16:29.134Z,20.75
2023-05-08T14:18:58.750Z,20.36
2023-05-08T14:21:28.353Z,20.18
2023-05-08T14:23:57.890Z,20.22
2023-05-08T14:26:27.529Z,19.97
2023-05-08T14:28:59.682Z,20.21
2023-05-08T14:31:29.437Z,19.48
2023-05-08T14:33:59.239Z,19.60
2023-05-08T14:36:28.836Z,20.10
2023-05-08T14:38:58.385Z,20.21
2023-05-08T14:41:30.635Z,20.14
2023-05-08T14:44:02.689Z,20.29
2023-05-08T14:46:32.257Z,20.31
2023-05-08T14:49:01.906Z,20.12
2023-05-08T14:51:31.737Z,20.21
2023-05-08T14:54:01.423Z,20.27
2023-05-08T14:56:40.495Z,20.19
2023-05-08T14:59:18.842Z,19.62
2023-05-08T15:01:48.676Z,19.25
2023-05-08T15:04:18.303Z,19.34
2023-05-08T15:06:47.982Z,19.49
2023-05-08T15:09:18.387Z,19.85
2023-05-08T15:11:47.943Z,20.01
2023-05-08T15:14:19.998Z,19.74
2023-05-08T15:16:49.575Z,19.55
2023-05-08T15:19:19.621Z,19.45
2023-05-08T15:21:49.142Z,19.39
2023-05-08T15:24:18.716Z,19.25
2023-05-08T15:26:48.239Z,19.35
2023-05-08T15:29:20.318Z,19.30
2023-05-08T15:31:49.833Z,19.26
2023-05-08T15:34:19.365Z,19.08
2023-05-08T15:36:48.823Z,19.13
2023-05-08T15:39:18.781Z,19.34
2023-05-08T15:41:48.353Z,19.16
2023-05-08T15:44:21.545Z,19.21
2023-05-08T15:46:51.075Z,19.34
2023-05-08T15:49:25.779Z,19.18
2023-05-08T15:51:55.462Z,19.18
2023-05-08T15:54:25.151Z,19.30
2023-05-08T15:56:54.647Z,19.16
2023-05-08T15:59:26.760Z,19.35
2023-05-08T16:01:56.325Z,19.12
2023-05-08T16:04:25.870Z,19.15
2023-05-08T16:06:56.649Z,19.38
2023-05-08T16:09:26.170Z,19.47
2023-05-08T16:11:55.984Z,19.79
2023-05-08T16:14:28.107Z,19.80
2023-05-08T16:16:57.638Z,19.92
2023-05-08T16:19:27.155Z,19.80
2023-05-08T16:21:56.685Z,19.44
2023-05-08T16:24:26.150Z,19.25
2023-05-08T16:26:55.634Z,19.55
2023-05-08T16:29:25.181Z,20.04
2023-05-08T16:31:57.313Z,19.70
2023-05-08T16:34:26.932Z,19.56
2023-05-08T16:36:56.453Z,19.70
2023-05-08T16:39:25.929Z,19.53
2023-05-08T16:41:55.457Z,19.05
2023-05-08T16:44:24.958Z,18.79
2023-05-08T16:46:57.103Z,19.06
2023-05-08T16:49:26.601Z,19.11
2023-05-08T16:51:56.132Z,18.89
2023-05-08T16:54:25.931Z,19.61
2023-05-08T16:56:56.213Z,20.07
2023-05-08T16:59:25.781Z,19.85
2023-05-08T17:01:57.878Z,19.82
2023-05-08T17:04:28.822Z,19.74
2023-05-08T17:07:00.439Z,19.35
2023-05-08T17:09:30.432Z,19.01
2023-05-08T17:12:01.957Z,19.01
2023-05-08T17:14:31.498Z,18.66
2023-05-08T17:17:03.563Z,18.40
2023-05-08T17:19:33.085Z,18.36
2023-05-08T17:22:02.883Z,18.43
2023-05-08T17:24:32.903Z,18.30
2023-05-08T17:27:03.148Z,18.14
2023-05-08T17:29:32.698Z,18.05
2023-05-08T17:32:04.934Z,18.03
2023-05-08T17:34:34.673Z,17.96
2023-05-08T17:37:04.467Z,17.84
2023-05-08T17:39:33.930Z,17.74
2023-05-08T17:42:03.430Z,17.68
2023-05-08T17:44:32.959Z,17.59
2023-05-08T17:47:05.140Z,17.50
2023-05-08T17:49:34.644Z,17.38
2023-05-08T17:52:04.202Z,17.38
2023-05-08T17:54:33.692Z,17.32
2023-05-08T17:57:03.580Z,17.33
2023-05-08T17:59:33.079Z,17.33
2023-05-08T18:02:05.498Z,17.26
2023-05-08T18:04:35.088Z,17.17
2023-05-08T18:07:04.638Z,17.10
2023-05-08T18:09:34.187Z,17.12
2023-05-08T18:12:04.334Z,17.08
2023-05-08T18:14:33.970Z,17.07
2023-05-08T18:17:06.105Z,17.02
2023-05-08T18:19:35.578Z,16.88
2023-05-08T18:22:05.073Z,16.88
2023-05-08T18:24:34.629Z,16.79
2023-05-08T18:27:04.367Z,16.67
2023-05-08T18:29:33.933Z,16.62
2023-05-08T18:32:06.417Z,16.55
2023-05-08T18:34:36.047Z,16.45
2023-05-08T18:37:05.608Z,16.39
2023-05-08T18:39:35.067Z,16.24
2023-05-08T18:42:04.827Z,16.22
2023-05-08T18:44:34.402Z,16.09
2023-05-08T18:47:06.870Z,15.99
2023-05-08T18:49:36.442Z,15.88
2023-05-08T18:52:06.112Z,15.81
2023-05-08T18:54:35.633Z,15.76
2023-05-08T18:57:05.143Z,15.73
2023-05-08T18:59:34.942Z,15.66
2023-05-08T19:02:07.092Z,15.62
2023-05-08T19:08:30.926Z,15.42
2023-05-08T19:10:59.119Z,15.33
2023-05-08T19:13:27.624Z,15.28
2023-05-08T19:15:57.878Z,15.29
2023-05-08T19:18:26.081Z,15.17
2023-05-08T19:20:54.223Z,15.10
2023-05-08T19:23:22.502Z,15.02
2023-05-08T19:25:54.604Z,14.95
2023-05-08T19:28:24.068Z,14.85
2023-05-08T19:30:53.539Z,14.76
2023-05-08T19:33:23.133Z,14.82
2023-05-08T19:35:52.809Z,14.76
2023-05-08T19:38:22.349Z,14.67
2023-05-08T19:40:57.694Z,14.56
2023-05-08T19:43:27.845Z,14.50
2023-05-08T19:45:58.124Z,14.44
2023-05-08T19:48:27.659Z,14.42
2023-05-08T19:50:57.188Z,14.31
2023-05-08T19:53:26.713Z,14.29
2023-05-08T19:55:58.876Z,14.27
2023-05-08T19:58:28.537Z,14.17
2023-05-08T20:00:58.335Z,14.11
2023-05-08T20:03:28.371Z,13.99
2023-05-08T20:05:57.985Z,13.91
2023-05-08T20:08:27.455Z,13.87
2023-05-08T20:11:02.541Z,13.90
2023-05-08T20:13:32.076Z,13.79
2023-05-08T20:16:01.605Z,13.71
2023-05-08T20:18:31.284Z,13.66
2023-05-08T20:21:00.770Z,13.61
2023-05-08T20:23:30.280Z,13.61
2023-05-08T20:26:04.645Z,13.57
2023-05-08T20:28:34.218Z,13.53
2023-05-08T20:31:04.184Z,13.49
2023-05-08T20:33:33.715Z,13.39
2023-05-08T20:36:03.534Z,13.34
2023-05-08T20:38:33.829Z,13.30
2023-05-08T20:41:06.040Z,13.25
2023-05-08T20:43:35.608Z,13.20
2023-05-08T20:46:05.100Z,13.15
2023-05-08T20:48:34.870Z,13.16
2023-05-08T20:51:04.350Z,13.10
2023-05-08T20:53:33.869Z,13.05
2023-05-08T20:56:06.767Z,13.05
2023-05-08T20:58:36.310Z,13.04
2023-05-08T21:01:06.416Z,13.03
2023-05-08T21:03:35.930Z,13.01
2023-05-08T21:06:05.406Z,12.95
2023-05-08T21:08:36.030Z,12.90
2023-05-08T21:11:08.272Z,12.89
2023-05-08T21:13:38.078Z,12.80
2023-05-08T21:16:09.404Z,12.75
2023-05-08T21:18:38.898Z,12.66
2023-05-08T21:21:17.153Z,12.62
2023-05-08T21:23:46.643Z,12.58
2023-05-08T21:26:19.999Z,12.58
2023-05-08T21:28:49.583Z,12.54
2023-05-08T21:31:19.148Z,12.49
2023-05-08T21:33:48.694Z,12.47
2023-05-08T21:36:18.188Z,12.42
2023-05-08T21:38:47.697Z,12.38
2023-05-08T21:41:19.822Z,12.37
2023-05-08T21:43:49.305Z,12.34
2023-05-08T21:46:18.858Z,12.38
2023-05-08T21:48:48.390Z,12.37
2023-05-08T21:51:17.884Z,12.39
2023-05-08T21:53:47.352Z,12.33
2023-05-08T21:56:19.451Z,12.29
2023-05-08T21:58:49.229Z,12.28
2023-05-08T22:01:18.803Z,12.28
2023-05-08T22:03:48.413Z,12.27
2023-05-08T22:06:18.042Z,12.23
2023-05-08T22:08:47.579Z,12.29
2023-05-08T22:11:19.661Z,12.22
2023-05-08T22:13:49.176Z,12.15
2023-05-08T22:16:18.791Z,12.12
2023-05-08T22:18:48.331Z,12.07
2023-05-08T22:21:17.878Z,12.01
2023-05-08T22:23:47.381Z,11.97
2023-05-08T22:26:19.480Z,11.95
2023-05-08T22:28:48.932Z,11.92
2023-05-08T22:31:18.556Z,11.92
2023-05-08T22:33:48.126Z,11.83
2023-05-08T22:36:18.897Z,11.82
2023-05-08T22:38:48.357Z,11.79
2023-05-08T22:41:20.484Z,11.78
2023-05-08T22:43:50.021Z,11.80
2023-05-08T22:46:19.654Z,11.82
2023-05-08T22:48:49.199Z,11.76
2023-05-08T22:51:18.756Z,11.70
2023-05-08T22:53:49.024Z,11.65
2023-05-08T22:56:21.246Z,11.59
2023-05-08T22:58:50.761Z,11.55
2023-05-08T23:01:23.198Z,11.59
2023-05-08T23:03:53.912Z,11.61
2023-05-08T23:06:24.300Z,11.57
2023-05-08T23:08:53.763Z,11.53
2023-05-08T23:11:26.001Z,11.51
2023-05-08T23:13:55.502Z,11.52
2023-05-08T23:16:25.038Z,11.47
2023-05-08T23:18:54.620Z,11.47
2023-05-08T23:21:24.088Z,11.44
2023-05-08T23:23:54.380Z,11.40
2023-05-08T23:26:26.477Z,11.30
2023-05-08T23:28:56.148Z,11.25
2023-05-08T23:31:25.696Z,11.23
2023-05-08T23:33:55.213Z,11.17
2023-05-08T23:36:24.777Z,11.17
2023-05-08T23:38:54.245Z,11.13
2023-05-08T23:41:26.355Z,11.11
2023-05-08T23:43:56.245Z,11.15
2023-05-08T23:46:25.981Z,11.11
2023-05-08T23:48:56.083Z,11.10
2023-05-08T23:51:25.802Z,11.10
2023-05-08T23:53:55.336Z,11.12
2023-05-08T23:56:27.575Z,11.07
2023-05-08T23:58:57.103Z,11.12
